This is the latest recevied weather packets stored in our database for station/object 9W2CEW-1. If no packets are shown the sender has not sent any weather packets the latest 1 day(s).
| Time | Temp. | Humidity | Pressure | Rain* | Wind** | Luminosity | Snow |
|---|---|---|---|---|---|---|---|
| 1777900849 | 34.44° C | 54% | 1002.9 hPa | - | - | - | - |
| 1777900750 | 32.78° C | 62% | 1003.9 hPa | - | - | - | - |
| 1777900670 | 32.78° C | 61% | 1002.8 hPa | - | - | - | - |
| 1777900607 | 32.78° C | 61% | 1002.8 hPa | - | - | - | - |
| 1777900415 | 32.22° C | 64% | 1002.6 hPa | - | - | - | - |
| 1777899928 | 33.33° C | 58% | 1003.9 hPa | - | - | - | - |
| 1777899849 | 33.33° C | 58% | 1003.9 hPa | - | - | - | - |
| 1777899469 | 33.33° C | 60% | 1002.1 hPa | - | - | - | - |
| 1777899056 | 33.89° C | 60% | 1001.6 hPa | - | - | - | - |
| 1777898952 | 32.78° C | 61% | 1003.8 hPa | - | - | - | - |
| 1777898653 | 32.78° C | 62% | 1001.4 hPa | - | - | - | - |
| 1777898049 | 32.22° C | 62% | 1003.5 hPa | - | - | - | - |
| 1777897854 | 35° C | 54% | 1001.9 hPa | - | - | - | - |
| 1777897281 | 33.33° C | 61% | 1002.3 hPa | - | - | - | - |
| 1777897149 | 32.78° C | 62% | 1003.4 hPa | - | - | - | - |
| 1777897045 | 34.44° C | 59% | 1002.6 hPa | - | - | - | - |
| 1777896804 | 35° C | 54% | 1002.3 hPa | - | - | - | - |
| 1777896506 | 33.89° C | 56% | 1002.7 hPa | - | - | - | - |
| 1777896366 | 36.11° C | 54% | 1003.1 hPa | - | - | - | - |
| 1777896255 | 35.56° C | 55% | 1003.2 hPa | - | - | - | - |
| 1777896250 | 32.78° C | 59% | 1003.2 hPa | - | - | - | - |
| 1777896084 | 32.22° C | 73% | 1003.8 hPa | - | - | - | - |
| 1777895349 | 34.44° C | 54% | 1002.9 hPa | - | - | - | - |
| 1777894449 | 32.78° C | 61% | 1002.8 hPa | - | - | - | - |
| 1777893549 | 32.22° C | 64% | 1002.6 hPa | - | - | - | - |
* Rain since midnight (hover to see other rain measurements)
** Current wind speed in m/s (hover to see current wind gust speed)